William J. Weber — WDC6537 — position and weather

sailwx.info

Track history (hours):
 
Tides and Currents Weather Stations Pressure Air Temp Water Temp Dewpoint Dewpoint Depression Visibility Wind Speed Wind Dir Waves Ship Positions

William J. Weber

Owner: American Commercial Lines LLC, Jeffersonville, IN. More information available from US FCC via Universal Licensing System and Coast Guard Vessel Documentation Center.

Last reported at 2015-Jul-04 22:27 UTC. Time now 2015-Jul-08 06:34 UTC.
Position N 29°29' W 094°52'.

Length 23 m.

Type: Towing. MMSI: 367057640.

Date/timePositionNaut miles runAvg speedWind from/ knotsBaromVisibWave heightAir tempDewpointWater temp
2015-Jul-04 22:27N 29°29' W 094°52'7 8.2
2015-Jul-04 21:33N 29°35' W 094°56'8 8.0
2015-Jul-04 20:33N 29°42' W 095°01'6 4.2
2015-Jul-04 19:11N 29°46' W 095°05'0 0.0
2015-Jul-04 15:21N 29°46' W 095°05'1 0.1
2015-Jul-04 03:28N 29°46' W 095°06'4 4.0
2015-Jul-04 02:32N 29°44' W 095°02'5 4.7
2015-Jul-04 01:33N 29°41' W 094°59'4 3.8
2015-Jul-04 00:33N 29°37' W 094°59'2 2.3
2015-Jul-03 23:33N 29°37' W 095°02'0 0.0
2015-Jul-03 22:33N 29°37' W 095°02'0 0.0
2015-Jul-03 21:33N 29°37' W 095°02'0 0.0
2015-Jul-03 20:33N 29°37' W 095°02'0 0.0
2015-Jul-03 19:31N 29°37' W 095°02'0 0.0
2015-Jul-03 18:33N 29°37' W 095°02'0 0.0
2015-Jul-03 17:33N 29°37' W 095°02'0 0.0
2015-Jul-03 16:33N 29°37' W 095°02'3 2.7
2015-Jul-03 15:33N 29°37' W 094°59'7 6.7
2015-Jul-03 14:33N 29°43' W 095°01'4 4.4
2015-Jul-03 13:33N 29°46' W 095°05'1 0.6
2015-Jul-03 12:21N 29°46' W 095°06'0 0.0
2015-Jul-03 05:14N 29°46' W 095°06'0 0.0
2015-Jul-03 04:30N 29°46' W 095°06'4 4.1
2015-Jul-03 03:32N 29°44' W 095°02'6 5.8
2015-Jul-03 02:33N 29°39' W 094°58'7 7.0
2015-Jul-03 01:33N 29°33' W 094°54'12 1.0
2015-Jul-02 13:09N 29°22' W 094°49'6 0.4
2015-Jul-01 22:11N 29°27' W 094°51'610.3
2015-Jul-01 21:33N 29°33' W 094°54'1010.0
2015-Jul-01 20:33N 29°42' W 094°59'7 5.2
2015-Jul-01 19:16N 29°46' W 095°05'1 0.9
2015-Jul-01 18:33N 29°46' W 095°06'0 0.0
2015-Jul-01 17:33N 29°46' W 095°06'0 0.0
2015-Jul-01 16:32N 29°46' W 095°06'0 0.0
2015-Jul-01 15:32N 29°46' W 095°06'0 0.0
2015-Jul-01 14:32N 29°46' W 095°06'0 0.0
2015-Jul-01 01:33N 29°46' W 095°06'0 0.0
2015-Jul-01 00:33N 29°46' W 095°06'0 0.0
2015-Jun-30 23:32N 29°46' W 095°06'0 0.0
2015-Jun-30 22:33N 29°46' W 095°06'0 0.0
2015-Jun-30 21:33N 29°46' W 095°06'0 0.0
2015-Jun-30 20:30N 29°46' W 095°06'0 0.0
2015-Jun-30 19:33N 29°46' W 095°06'0 0.0
2015-Jun-30 18:22N 29°46' W 095°06'0 0.0
2015-Jun-30 17:32N 29°46' W 095°06'0 0.0
2015-Jun-30 16:33N 29°46' W 095°06'9 0.4
2015-Jun-29 19:20N 29°43' W 095°16'  
2015-Jun-26 19:24N 29°45' W 095°10'5 4.9
2015-Jun-26 18:28N 29°46' W 095°05'6 6.0
2015-Jun-26 17:33N 29°42' W 095°00'6 5.7
2015-Jun-26 16:33N 29°37' W 094°57'7 7.1
2015-Jun-26 15:33N 29°31' W 094°53'  
Track history (hours):
 
Tides and Currents Weather Stations Pressure Air Temp Water Temp Dewpoint Dewpoint Depression Visibility Wind Speed Wind Dir Waves Ship Positions

William J. Weber

Owner: American Commercial Lines LLC, Jeffersonville, IN. More information available from US FCC via Universal Licensing System and Coast Guard Vessel Documentation Center.

Last reported at 2015-Jul-04 22:27 UTC. Time now 2015-Jul-08 06:34 UTC.
Position N 29°29' W 094°52'.

Length 23 m.

Type: Towing. MMSI: 367057640.

Date/timePositionNaut miles runAvg speedWind from/ knotsBaromVisibWave heightAir tempDewpointWater temp
2015-Jul-04 22:27N 29°29' W 094°52'7 8.2
2015-Jul-04 21:33N 29°35' W 094°56'8 8.0
2015-Jul-04 20:33N 29°42' W 095°01'6 4.2
2015-Jul-04 19:11N 29°46' W 095°05'0 0.0
2015-Jul-04 15:21N 29°46' W 095°05'1 0.1
2015-Jul-04 03:28N 29°46' W 095°06'4 4.0
2015-Jul-04 02:32N 29°44' W 095°02'5 4.7
2015-Jul-04 01:33N 29°41' W 094°59'4 3.8
2015-Jul-04 00:33N 29°37' W 094°59'2 2.3
2015-Jul-03 23:33N 29°37' W 095°02'0 0.0
2015-Jul-03 22:33N 29°37' W 095°02'0 0.0
2015-Jul-03 21:33N 29°37' W 095°02'0 0.0
2015-Jul-03 20:33N 29°37' W 095°02'0 0.0
2015-Jul-03 19:31N 29°37' W 095°02'0 0.0
2015-Jul-03 18:33N 29°37' W 095°02'0 0.0
2015-Jul-03 17:33N 29°37' W 095°02'0 0.0
2015-Jul-03 16:33N 29°37' W 095°02'3 2.7
2015-Jul-03 15:33N 29°37' W 094°59'7 6.7
2015-Jul-03 14:33N 29°43' W 095°01'4 4.4
2015-Jul-03 13:33N 29°46' W 095°05'1 0.6
2015-Jul-03 12:21N 29°46' W 095°06'0 0.0
2015-Jul-03 05:14N 29°46' W 095°06'0 0.0
2015-Jul-03 04:30N 29°46' W 095°06'4 4.1
2015-Jul-03 03:32N 29°44' W 095°02'6 5.8
2015-Jul-03 02:33N 29°39' W 094°58'7 7.0
2015-Jul-03 01:33N 29°33' W 094°54'12 1.0
2015-Jul-02 13:09N 29°22' W 094°49'6 0.4
2015-Jul-01 22:11N 29°27' W 094°51'610.3
2015-Jul-01 21:33N 29°33' W 094°54'1010.0
2015-Jul-01 20:33N 29°42' W 094°59'7 5.2
2015-Jul-01 19:16N 29°46' W 095°05'1 0.9
2015-Jul-01 18:33N 29°46' W 095°06'0 0.0
2015-Jul-01 17:33N 29°46' W 095°06'0 0.0
2015-Jul-01 16:32N 29°46' W 095°06'0 0.0
2015-Jul-01 15:32N 29°46' W 095°06'0 0.0
2015-Jul-01 14:32N 29°46' W 095°06'0 0.0
2015-Jul-01 01:33N 29°46' W 095°06'0 0.0
2015-Jul-01 00:33N 29°46' W 095°06'0 0.0
2015-Jun-30 23:32N 29°46' W 095°06'0 0.0
2015-Jun-30 22:33N 29°46' W 095°06'0 0.0
2015-Jun-30 21:33N 29°46' W 095°06'0 0.0
2015-Jun-30 20:30N 29°46' W 095°06'0 0.0
2015-Jun-30 19:33N 29°46' W 095°06'0 0.0
2015-Jun-30 18:22N 29°46' W 095°06'0 0.0
2015-Jun-30 17:32N 29°46' W 095°06'0 0.0
2015-Jun-30 16:33N 29°46' W 095°06'9 0.4
2015-Jun-29 19:20N 29°43' W 095°16'  
2015-Jun-26 19:24N 29°45' W 095°10'5 4.9
2015-Jun-26 18:28N 29°46' W 095°05'6 6.0
2015-Jun-26 17:33N 29°42' W 095°00'6 5.7
2015-Jun-26 16:33N 29°37' W 094°57'7 7.1
2015-Jun-26 15:33N 29°31' W 094°53'  

Dump ship's entire track history